createdAt,value
2023-03-30T00:01:17.294Z,5.33
2023-03-30T00:03:47.349Z,5.63
2023-03-30T00:06:21.757Z,5.90
2023-03-30T00:08:50.136Z,6.47
2023-03-30T00:11:18.099Z,5.90
2023-03-30T00:13:46.292Z,6.37
2023-03-30T00:16:16.066Z,6.00
2023-03-30T00:18:45.025Z,5.80
2023-03-30T00:21:13.034Z,6.07
2023-03-30T00:23:41.178Z,6.53
2023-03-30T00:26:09.775Z,6.17
2023-03-30T00:28:37.556Z,5.50
2023-03-30T00:31:05.834Z,6.07
2023-03-30T00:33:45.449Z,5.50
2023-03-30T00:36:14.777Z,4.93
2023-03-30T00:38:42.741Z,5.83
2023-03-30T00:41:10.792Z,5.20
2023-03-30T00:43:57.104Z,5.03
2023-03-30T00:46:25.738Z,4.63
2023-03-30T00:48:58.160Z,3.77
2023-03-30T00:51:27.973Z,3.63
2023-03-30T00:54:01.038Z,3.20
2023-03-30T00:56:31.315Z,2.93
2023-03-30T00:59:00.811Z,2.87
2023-03-30T01:01:29.586Z,2.77
2023-03-30T01:04:03.627Z,2.70
2023-03-30T01:06:32.521Z,2.73
2023-03-30T01:09:00.687Z,3.00
2023-03-30T01:11:29.275Z,2.97
2023-03-30T01:14:02.411Z,2.70
2023-03-30T01:16:40.140Z,2.60
2023-03-30T01:19:26.726Z,2.60
2023-03-30T01:22:34.677Z,2.57
2023-03-30T01:25:48.137Z,2.73
2023-03-30T01:28:29.933Z,2.60
2023-03-30T01:31:27.205Z,2.70
2023-03-30T01:34:48.058Z,2.53
2023-03-30T01:37:36.149Z,2.40
2023-03-30T01:40:10.999Z,1.97
2023-03-30T01:42:43.408Z,2.60
2023-03-30T01:45:16.837Z,2.40
2023-03-30T01:47:54.257Z,2.33
2023-03-30T01:50:27.782Z,2.90
2023-03-30T01:53:00.202Z,1.95
2023-03-30T01:55:34.700Z,2.50
2023-03-30T01:58:07.905Z,2.57
2023-03-30T02:00:38.149Z,2.20
2023-03-30T02:03:11.563Z,2.05
2023-03-30T02:05:41.756Z,2.33
2023-03-30T02:08:13.590Z,2.25
2023-03-30T02:10:45.811Z,2.20
2023-03-30T02:13:15.366Z,2.20
2023-03-30T02:15:45.387Z,2.33
2023-03-30T02:18:13.699Z,2.58
2023-03-30T02:20:42.637Z,2.80
2023-03-30T02:23:11.508Z,2.50
2023-03-30T02:25:40.380Z,2.40
2023-03-30T02:28:10.234Z,2.38
2023-03-30T02:30:42.373Z,2.37
2023-03-30T02:33:14.973Z,2.63
2023-03-30T02:36:00.143Z,2.07
2023-03-30T02:38:45.379Z,2.58
2023-03-30T02:41:22.553Z,2.30
2023-03-30T02:44:01.408Z,2.50
2023-03-30T02:46:51.908Z,2.30
2023-03-30T02:49:34.567Z,2.80
2023-03-30T02:52:11.091Z,2.95
2023-03-30T02:54:52.828Z,3.70
2023-03-30T02:57:32.875Z,4.50
2023-03-30T03:00:33.734Z,4.73
2023-03-30T03:03:10.216Z,5.30
2023-03-30T03:05:38.617Z,4.13
2023-03-30T03:08:16.453Z,4.53
2023-03-30T03:10:45.699Z,4.00
2023-03-30T03:13:16.188Z,4.33
2023-03-30T03:15:49.506Z,4.97
2023-03-30T03:18:18.500Z,5.17
2023-03-30T03:20:46.405Z,4.30
2023-03-30T03:23:14.251Z,4.77
2023-03-30T03:25:48.294Z,4.60
2023-03-30T03:28:18.227Z,4.43
2023-03-30T03:30:51.187Z,4.70
2023-03-30T03:33:22.650Z,4.13
2023-03-30T03:36:00.401Z,3.93
2023-03-30T03:38:30.890Z,4.67
2023-03-30T03:41:00.816Z,4.30
2023-03-30T03:43:30.395Z,4.00
2023-03-30T03:45:59.747Z,3.83
2023-03-30T03:48:27.894Z,3.80
2023-03-30T03:50:58.177Z,4.80
2023-03-30T03:53:29.162Z,4.17
2023-03-30T03:56:02.084Z,4.00
2023-03-30T03:58:30.090Z,5.30
2023-03-30T04:01:03.650Z,5.03
2023-03-30T04:03:32.251Z,4.57
2023-03-30T04:06:01.311Z,4.27
2023-03-30T04:08:29.547Z,3.43
2023-03-30T04:11:08.670Z,4.13
2023-03-30T04:14:05.734Z,4.20
2023-03-30T04:16:46.873Z,4.78
2023-03-30T04:19:37.676Z,4.20
2023-03-30T04:22:27.681Z,4.33
2023-03-30T04:25:23.011Z,4.10
2023-03-30T04:28:11.585Z,2.67
2023-03-30T04:30:51.324Z,2.57
2023-03-30T04:33:46.972Z,2.57
2023-03-30T04:36:54.378Z,2.50
2023-03-30T04:39:29.990Z,2.67
2023-03-30T04:42:20.011Z,2.60
2023-03-30T04:45:01.479Z,2.63
2023-03-30T04:47:46.665Z,2.43
2023-03-30T04:50:39.038Z,2.27
2023-03-30T04:53:45.151Z,2.80
2023-03-30T04:56:12.865Z,2.40
2023-03-30T04:59:03.846Z,2.63
2023-03-30T05:01:50.537Z,2.87
2023-03-30T05:04:27.189Z,2.80
2023-03-30T05:07:19.760Z,3.00
2023-03-30T05:09:50.380Z,3.13
2023-03-30T05:12:41.210Z,2.90
2023-03-30T05:15:17.779Z,2.53
2023-03-30T05:17:48.109Z,2.73
2023-03-30T05:20:25.458Z,2.90
2023-03-30T05:23:21.446Z,3.10
2023-03-30T05:26:05.088Z,2.95
2023-03-30T05:28:55.017Z,2.57
2023-03-30T05:31:34.071Z,3.10
2023-03-30T05:34:38.072Z,3.00
2023-03-30T05:37:35.404Z,3.20
2023-03-30T05:40:25.831Z,3.63
2023-03-30T05:43:12.475Z,3.00
2023-03-30T05:45:43.954Z,3.72
2023-03-30T05:48:30.761Z,3.88
2023-03-30T05:51:18.742Z,3.47
2023-03-30T05:54:07.698Z,3.80
2023-03-30T05:56:52.188Z,3.70
2023-03-30T05:59:45.757Z,3.17
2023-03-30T06:02:36.650Z,3.90
2023-03-30T06:05:09.101Z,3.77
2023-03-30T06:07:37.916Z,4.20
2023-03-30T06:10:08.240Z,3.80
2023-03-30T06:12:39.342Z,3.60
2023-03-30T06:15:14.502Z,2.55
2023-03-30T06:17:53.010Z,2.08
2023-03-30T06:20:24.501Z,2.40
2023-03-30T06:22:52.913Z,2.40
2023-03-30T06:25:26.116Z,2.58
2023-03-30T06:27:57.584Z,2.15
2023-03-30T06:30:27.056Z,2.35
2023-03-30T06:33:04.052Z,2.05
2023-03-30T06:35:47.373Z,2.60
2023-03-30T06:38:19.772Z,2.75
2023-03-30T06:40:47.869Z,2.15
2023-03-30T06:43:19.849Z,2.40
2023-03-30T06:46:04.298Z,2.63
2023-03-30T06:48:32.996Z,2.50
2023-03-30T06:51:19.815Z,2.33
2023-03-30T06:53:47.845Z,2.67
2023-03-30T06:56:15.641Z,2.43
2023-03-30T06:59:03.040Z,2.73
2023-03-30T07:01:31.263Z,2.50
2023-03-30T07:04:17.279Z,2.43
2023-03-30T07:07:14.386Z,2.60
2023-03-30T07:09:42.881Z,2.08
2023-03-30T07:12:10.736Z,2.50
2023-03-30T07:14:39.896Z,2.07
2023-03-30T07:17:09.208Z,1.83
2023-03-30T07:19:37.610Z,2.00
2023-03-30T07:22:05.465Z,1.90
2023-03-30T07:24:33.730Z,2.30
2023-03-30T07:27:01.691Z,2.13
2023-03-30T07:29:29.617Z,1.90
2023-03-30T07:31:59.578Z,2.00
2023-03-30T07:34:27.712Z,2.10
2023-03-30T07:36:58.672Z,2.20
2023-03-30T07:39:31.571Z,1.77
2023-03-30T07:42:01.628Z,1.83
2023-03-30T07:44:30.761Z,1.73
2023-03-30T07:47:06.695Z,2.17
2023-03-30T07:49:35.573Z,2.10
2023-03-30T07:52:03.418Z,1.77
2023-03-30T07:54:43.485Z,2.33
2023-03-30T07:57:19.821Z,2.23
2023-03-30T07:59:48.053Z,1.73
2023-03-30T08:02:31.077Z,1.52
2023-03-30T08:05:00.167Z,1.87
2023-03-30T08:07:36.924Z,1.90
2023-03-30T08:10:13.172Z,1.98
2023-03-30T08:12:41.325Z,1.95
2023-03-30T08:15:10.547Z,1.92
2023-03-30T08:17:39.708Z,2.30
2023-03-30T08:20:11.437Z,1.95
2023-03-30T08:22:39.479Z,1.60
2023-03-30T08:25:07.749Z,1.77
2023-03-30T08:27:35.584Z,1.90
2023-03-30T08:30:03.426Z,1.80
2023-03-30T08:32:31.274Z,1.50
2023-03-30T08:35:00.853Z,1.90
2023-03-30T08:37:28.666Z,2.00
2023-03-30T08:39:56.505Z,1.90
2023-03-30T08:42:41.542Z,2.00
2023-03-30T08:45:12.926Z,1.48
2023-03-30T08:47:43.817Z,2.03
2023-03-30T08:50:19.133Z,1.95
2023-03-30T08:52:48.004Z,1.95
2023-03-30T08:55:24.465Z,1.83
2023-03-30T08:58:00.209Z,1.80
2023-03-30T09:00:39.004Z,2.03
2023-03-30T09:03:15.712Z,1.67
2023-03-30T09:05:50.263Z,1.67
2023-03-30T09:08:21.613Z,2.22
2023-03-30T09:10:57.025Z,2.07
2023-03-30T09:13:27.093Z,1.98
2023-03-30T09:16:02.292Z,2.30
2023-03-30T09:18:33.102Z,2.07
2023-03-30T09:21:04.190Z,2.40
2023-03-30T09:23:33.360Z,2.05
2023-03-30T09:26:11.430Z,1.65
2023-03-30T09:28:48.145Z,2.30
2023-03-30T09:31:21.338Z,2.45
2023-03-30T09:33:58.414Z,1.88
2023-03-30T09:36:35.609Z,2.35
2023-03-30T09:39:10.103Z,1.70
2023-03-30T09:41:57.929Z,1.67
2023-03-30T09:44:34.464Z,1.52
2023-03-30T09:47:03.132Z,1.58
2023-03-30T09:49:38.809Z,1.15
2023-03-30T09:52:09.499Z,1.40
2023-03-30T09:54:38.569Z,1.67
2023-03-30T09:57:06.717Z,1.97
2023-03-30T09:59:37.117Z,2.00
2023-03-30T10:02:19.498Z,2.37
2023-03-30T10:04:57.434Z,2.20
2023-03-30T10:07:29.091Z,2.07
2023-03-30T10:09:58.941Z,1.73
2023-03-30T10:12:28.435Z,1.70
2023-03-30T10:14:57.582Z,1.60
2023-03-30T10:17:27.976Z,1.77
2023-03-30T10:20:16.168Z,1.80
2023-03-30T10:22:53.088Z,1.63
2023-03-30T10:25:24.824Z,1.60
2023-03-30T10:27:55.884Z,1.27
2023-03-30T10:30:28.282Z,1.57
2023-03-30T10:32:59.754Z,1.90
2023-03-30T10:35:34.057Z,1.30
2023-03-30T10:38:04.469Z,1.17
2023-03-30T10:40:36.644Z,1.27
2023-03-30T10:43:07.281Z,1.15
2023-03-30T10:45:40.565Z,1.30
2023-03-30T10:48:27.622Z,1.20
2023-03-30T10:51:04.908Z,1.20
2023-03-30T10:53:46.078Z,1.13
2023-03-30T10:56:27.199Z,0.90
2023-03-30T10:59:14.369Z,1.17
2023-03-30T11:01:52.913Z,1.23
2023-03-30T11:04:29.639Z,1.00
2023-03-30T11:07:00.410Z,1.10
2023-03-30T11:09:33.136Z,1.37
2023-03-30T11:12:04.645Z,1.20
2023-03-30T11:14:42.363Z,1.25
2023-03-30T11:17:17.258Z,1.52
2023-03-30T11:19:50.065Z,1.25
2023-03-30T11:22:33.424Z,1.33
2023-03-30T11:25:05.178Z,1.60
2023-03-30T11:27:40.607Z,1.80
2023-03-30T11:30:15.106Z,1.13
2023-03-30T11:32:47.650Z,1.10
2023-03-30T11:35:19.924Z,1.67
2023-03-30T11:37:55.169Z,1.60
2023-03-30T11:40:27.389Z,2.22
2023-03-30T11:42:55.878Z,1.45
2023-03-30T11:45:44.787Z,1.60
2023-03-30T11:48:35.953Z,1.60
2023-03-30T11:51:19.051Z,1.37
2023-03-30T11:53:55.546Z,1.37
2023-03-30T11:56:31.998Z,1.55
2023-03-30T11:59:05.761Z,1.35
2023-03-30T12:01:46.437Z,1.65
2023-03-30T12:04:16.965Z,2.33
2023-03-30T12:06:52.902Z,1.67
2023-03-30T12:09:26.318Z,1.70
2023-03-30T12:12:04.339Z,1.57
2023-03-30T12:14:41.256Z,2.00
2023-03-30T12:17:25.626Z,1.42
2023-03-30T12:19:58.181Z,1.70
2023-03-30T12:22:32.393Z,1.63
2023-03-30T12:25:05.142Z,1.58
2023-03-30T12:27:38.762Z,1.60
2023-03-30T12:30:15.286Z,1.48
2023-03-30T12:33:00.568Z,1.53
2023-03-30T12:35:53.576Z,2.88
2023-03-30T12:38:23.494Z,2.00
2023-03-30T12:41:02.939Z,1.90
2023-03-30T12:43:39.125Z,1.90
2023-03-30T12:46:14.088Z,2.78
2023-03-30T12:48:54.534Z,2.65
2023-03-30T12:51:37.845Z,2.93
2023-03-30T12:54:18.700Z,2.63
2023-03-30T12:56:57.340Z,2.90
2023-03-30T13:00:07.270Z,3.50
2023-03-30T13:02:57.669Z,3.00
2023-03-30T13:05:30.060Z,3.00
2023-03-30T13:07:58.673Z,3.27
2023-03-30T13:10:39.896Z,3.70
2023-03-30T13:13:18.549Z,3.67
2023-03-30T13:15:49.497Z,2.40
2023-03-30T13:18:52.509Z,2.15
2023-03-30T13:21:23.925Z,1.75
2023-03-30T13:24:04.547Z,2.10
2023-03-30T13:26:42.597Z,1.53
2023-03-30T13:29:11.666Z,1.83
2023-03-30T13:32:01.144Z,1.40
2023-03-30T13:34:58.492Z,1.60
2023-03-30T13:37:47.787Z,1.60
2023-03-30T13:40:31.183Z,1.83
2023-03-30T13:43:13.879Z,1.90
2023-03-30T13:45:49.028Z,1.52
2023-03-30T13:48:32.093Z,1.80
2023-03-30T13:51:04.418Z,1.85
2023-03-30T13:53:39.680Z,1.50
2023-03-30T13:56:10.097Z,1.52
2023-03-30T13:58:39.407Z,1.73
2023-03-30T14:01:11.186Z,1.55
2023-03-30T14:03:41.775Z,1.60
2023-03-30T14:06:18.104Z,1.58
2023-03-30T14:08:47.945Z,1.40
2023-03-30T14:11:19.072Z,1.23
2023-03-30T14:13:50.506Z,1.10
2023-03-30T14:16:22.117Z,1.23
2023-03-30T14:18:50.513Z,1.30
2023-03-30T14:21:21.954Z,1.20
2023-03-30T14:23:52.514Z,1.90
2023-03-30T14:26:24.411Z,1.50
2023-03-30T14:28:56.492Z,1.52
2023-03-30T14:31:27.275Z,1.38
2023-03-30T14:33:55.941Z,1.95
2023-03-30T14:36:45.691Z,1.58
2023-03-30T14:39:22.329Z,2.00
2023-03-30T14:41:55.393Z,1.98
2023-03-30T14:44:28.194Z,1.80
2023-03-30T14:47:00.124Z,1.80
2023-03-30T14:49:30.042Z,1.33
2023-03-30T14:52:05.015Z,1.98
2023-03-30T14:54:32.814Z,1.50
2023-03-30T14:57:03.386Z,1.45
2023-03-30T14:59:34.162Z,1.97
2023-03-30T15:02:05.659Z,1.75
2023-03-30T15:04:38.372Z,1.45
2023-03-30T15:07:07.773Z,2.00
2023-03-30T15:09:39.659Z,1.60
2023-03-30T15:12:10.158Z,1.75
2023-03-30T15:14:41.044Z,1.80
2023-03-30T15:17:13.119Z,1.85
2023-03-30T15:19:41.177Z,1.75
2023-03-30T15:22:26.040Z,2.13
2023-03-30T15:24:55.595Z,2.03
2023-03-30T15:27:24.645Z,2.00
2023-03-30T15:29:53.026Z,2.25
2023-03-30T15:32:24.942Z,2.50
2023-03-30T15:35:03.225Z,2.15
2023-03-30T15:37:36.488Z,1.90
2023-03-30T15:40:23.834Z,2.20
2023-03-30T15:42:51.750Z,2.00
2023-03-30T15:45:19.431Z,2.38
2023-03-30T15:47:47.464Z,1.92
2023-03-30T15:50:15.716Z,1.92
2023-03-30T15:52:46.602Z,1.60
2023-03-30T15:55:20.164Z,1.80
2023-03-30T15:57:49.726Z,2.17
2023-03-30T16:00:21.619Z,1.77
2023-03-30T16:02:57.448Z,1.67
2023-03-30T16:05:29.519Z,1.27
2023-03-30T16:07:58.857Z,1.65
2023-03-30T16:10:29.366Z,1.30
2023-03-30T16:13:00.546Z,1.60
2023-03-30T16:15:30.187Z,1.23
2023-03-30T16:17:58.312Z,1.50
2023-03-30T16:20:28.221Z,1.30
2023-03-30T16:22:56.214Z,2.00
2023-03-30T16:27:59.715Z,1.67
2023-03-30T16:30:31.014Z,1.55
2023-03-30T16:32:58.771Z,1.30
2023-03-30T16:35:27.009Z,1.33
2023-03-30T16:37:54.947Z,1.80
2023-03-30T16:40:32.255Z,1.25
2023-03-30T16:43:00.205Z,1.25
2023-03-30T16:45:28.473Z,1.10
2023-03-30T16:47:56.358Z,1.63
2023-03-30T16:50:28.270Z,1.77
2023-03-30T16:52:56.037Z,1.88
2023-03-30T16:55:23.805Z,1.63
2023-03-30T16:57:53.005Z,1.58
2023-03-30T17:00:25.093Z,1.30
2023-03-30T17:02:53.159Z,1.20
2023-03-30T17:05:21.382Z,1.40
2023-03-30T17:07:49.510Z,1.17
2023-03-30T17:10:26.201Z,1.00
2023-03-30T17:12:56.562Z,0.88
2023-03-30T17:15:25.679Z,0.77
2023-03-30T17:17:54.059Z,0.77
2023-03-30T17:20:27.596Z,0.83
2023-03-30T17:23:00.252Z,0.77
2023-03-30T17:25:28.265Z,0.85
2023-03-30T17:27:58.327Z,0.83
2023-03-30T17:30:27.866Z,0.88
2023-03-30T17:32:57.158Z,0.80
2023-03-30T17:35:26.595Z,0.93
2023-03-30T17:37:55.429Z,1.00
2023-03-30T17:40:26.023Z,0.98
2023-03-30T17:42:54.394Z,0.90
2023-03-30T17:45:25.657Z,1.08
2023-03-30T17:47:53.899Z,1.15
2023-03-30T17:50:24.993Z,1.40
2023-03-30T17:52:53.596Z,1.42
2023-03-30T17:55:23.437Z,1.23
2023-03-30T17:57:51.590Z,1.05
2023-03-30T18:00:24.841Z,1.25
2023-03-30T18:02:53.716Z,1.48
2023-03-30T18:05:23.806Z,1.27
2023-03-30T18:07:52.240Z,1.17
2023-03-30T18:10:25.550Z,1.45
2023-03-30T18:12:54.110Z,1.70
2023-03-30T18:15:27.878Z,1.58
2023-03-30T18:17:57.422Z,1.40
2023-03-30T18:20:29.091Z,1.20
2023-03-30T18:22:57.038Z,1.58
2023-03-30T18:25:31.986Z,1.30
2023-03-30T18:28:01.359Z,1.40
2023-03-30T18:30:34.302Z,1.57
2023-03-30T18:33:02.162Z,1.48
2023-03-30T18:35:31.769Z,1.40
2023-03-30T18:37:59.666Z,1.42
2023-03-30T18:40:32.697Z,1.90
2023-03-30T18:43:01.511Z,1.50
2023-03-30T18:45:34.098Z,1.42
2023-03-30T18:48:03.007Z,1.80
2023-03-30T18:50:34.803Z,1.60
2023-03-30T18:53:03.325Z,1.42
2023-03-30T18:55:32.093Z,1.48
2023-03-30T18:58:00.150Z,1.48
2023-03-30T19:00:31.284Z,1.37
2023-03-30T19:02:59.853Z,1.77
2023-03-30T19:05:29.767Z,2.10
2023-03-30T19:07:58.207Z,1.45
2023-03-30T19:10:28.480Z,2.00
2023-03-30T19:12:56.960Z,1.50
2023-03-30T19:15:28.961Z,1.70
2023-03-30T19:17:58.396Z,2.23
2023-03-30T19:20:27.830Z,2.15
2023-03-30T19:22:56.452Z,1.37
2023-03-30T19:25:28.211Z,1.33
2023-03-30T19:28:03.829Z,2.20
2023-03-30T19:30:39.278Z,1.53
2023-03-30T19:33:12.320Z,1.67
2023-03-30T19:35:41.254Z,1.50
2023-03-30T19:38:09.090Z,1.60
2023-03-30T19:40:38.209Z,1.30
2023-03-30T19:43:08.476Z,1.77
2023-03-30T19:45:36.283Z,1.70
2023-03-30T19:48:04.435Z,1.90
2023-03-30T19:50:35.554Z,1.60
2023-03-30T19:53:03.356Z,1.13
2023-03-30T19:55:33.658Z,1.20
2023-03-30T19:58:01.622Z,1.60
2023-03-30T20:00:31.401Z,1.30
2023-03-30T20:03:01.226Z,1.07
2023-03-30T20:05:29.243Z,1.60
2023-03-30T20:07:59.906Z,1.27
2023-03-30T20:10:30.109Z,1.30
2023-03-30T20:12:58.312Z,1.30
2023-03-30T20:15:26.873Z,1.30
2023-03-30T20:17:56.629Z,1.10
2023-03-30T20:20:26.137Z,1.65
2023-03-30T20:22:56.679Z,0.70
2023-03-30T20:25:29.710Z,1.10
2023-03-30T20:27:57.517Z,1.00
2023-03-30T20:30:25.464Z,1.43
2023-03-30T20:33:06.936Z,1.20
2023-03-30T20:35:37.111Z,1.00
2023-03-30T20:38:05.483Z,1.30
2023-03-30T20:40:35.860Z,1.13
2023-03-30T20:43:06.699Z,1.48
2023-03-30T20:45:45.833Z,1.73
2023-03-30T20:48:27.106Z,1.70
2023-03-30T20:50:59.336Z,1.55
2023-03-30T20:53:29.687Z,1.63
2023-03-30T20:55:59.561Z,1.50
2023-03-30T20:58:29.122Z,2.00
2023-03-30T21:00:59.034Z,1.60
2023-03-30T21:03:29.040Z,1.57
2023-03-30T21:06:01.475Z,1.57
2023-03-30T21:08:29.991Z,2.10
2023-03-30T21:10:59.430Z,1.80
2023-03-30T21:13:27.224Z,1.60
2023-03-30T21:15:58.533Z,2.13
2023-03-30T21:18:26.889Z,1.98
2023-03-30T21:20:55.401Z,2.03
2023-03-30T21:23:25.177Z,1.70
2023-03-30T21:25:55.759Z,1.90
2023-03-30T21:28:27.201Z,1.80
2023-03-30T21:30:55.861Z,1.93
2023-03-30T21:33:24.279Z,1.70
2023-03-30T21:35:53.130Z,2.00
2023-03-30T21:38:22.000Z,1.87
2023-03-30T21:41:01.445Z,2.03
2023-03-30T21:43:32.956Z,1.43
2023-03-30T21:46:02.733Z,2.27
2023-03-30T21:48:32.285Z,1.70
2023-03-30T21:51:01.198Z,1.67
2023-03-30T21:53:30.185Z,1.73
2023-03-30T21:55:58.270Z,2.03
2023-03-30T21:58:29.170Z,1.67
2023-03-30T22:01:10.678Z,1.57
2023-03-30T22:03:40.110Z,1.80
2023-03-30T22:06:09.814Z,1.97
2023-03-30T22:08:37.764Z,2.17
2023-03-30T22:11:08.161Z,1.73
2023-03-30T22:13:35.992Z,1.70
2023-03-30T22:16:07.733Z,1.90
2023-03-30T22:18:35.864Z,2.40
2023-03-30T22:21:05.752Z,1.57
2023-03-30T22:23:33.670Z,1.80
2023-03-30T22:26:04.812Z,2.17
2023-03-30T22:28:32.823Z,1.70
2023-03-30T22:31:00.711Z,1.93
2023-03-30T22:33:29.914Z,1.80
2023-03-30T22:35:59.811Z,1.83
2023-03-30T22:38:27.822Z,2.57
2023-03-30T22:41:04.564Z,2.27
2023-03-30T22:43:34.451Z,2.10
2023-03-30T22:46:02.520Z,2.10
2023-03-30T22:48:32.228Z,2.13
2023-03-30T22:51:03.154Z,1.53
2023-03-30T22:53:31.855Z,1.63
2023-03-30T22:55:59.720Z,1.53
2023-03-30T22:58:28.278Z,1.33
2023-03-30T23:01:00.889Z,1.73
2023-03-30T23:03:29.120Z,1.70
2023-03-30T23:06:00.842Z,1.57
2023-03-30T23:08:30.939Z,1.60
2023-03-30T23:11:04.491Z,2.07
2023-03-30T23:13:32.700Z,1.60
2023-03-30T23:16:01.560Z,1.80
2023-03-30T23:18:29.355Z,1.50
2023-03-30T23:20:58.468Z,1.73
2023-03-30T23:23:27.025Z,1.47
2023-03-30T23:25:54.788Z,1.60
2023-03-30T23:28:22.550Z,1.87
2023-03-30T23:30:50.669Z,1.63
2023-03-30T23:33:18.470Z,1.57
2023-03-30T23:35:50.115Z,1.60
2023-03-30T23:38:19.328Z,1.23
2023-03-30T23:40:47.114Z,1.53
2023-03-30T23:43:14.807Z,1.40
2023-03-30T23:45:44.119Z,1.83
2023-03-30T23:48:11.888Z,1.60
2023-03-30T23:50:39.626Z,1.60
2023-03-30T23:53:10.566Z,1.27
2023-03-30T23:55:41.291Z,2.27
2023-03-30T23:58:09.177Z,1.90
